NCAR-RAP Real-Time Weather Data

Output produced by METARs form (26 May 2022  07:09 UTC)
found at http://weather.rap.ucar.edu/surface/
 
KILM 260653Z 01005KT 10SM OVC011 19/16 A3020 RMK AO2 SLP227 T01940161
KILM 260553Z 07004KT 10SM OVC013 19/16 A3021 RMK AO2 SLP231 T01940161 10217 20194 56007
KILM 260453Z 03007KT 10SM OVC014 19/16 A3022 RMK AO2 SLP231 T01940161 402830189
KILM 260438Z 03007KT 10SM OVC014 19/16 A3022 RMK AO2 T01940161
KILM 260353Z 04007KT 10SM OVC016 19/16 A3023 RMK AO2 SLP237 T01940161
KILM 260253Z 05008KT 10SM OVC017 20/16 A3024 RMK AO2 SLP238 LAST T02000161 51010
KILM 260153Z 03007KT 10SM OVC018 21/16 A3023 RMK AO2 SLP237 T02060161
KILM 260053Z 03009KT 10SM OVC017 21/16 A3022 RMK AO2 SLP233 T02060161
KILM 260028Z 05011KT 10SM BKN018 21/17 A3021 RMK AO2 T02060167
KILM 252353Z 04011KT 10SM SCT030 21/17 A3021 RMK AO2 SLP228 T02110167 10283 20211 53007
KILM 252253Z 02008KT 10SM OVC027 23/17 A3018 RMK AO2 SLP219 T02330172
KILM 252240Z 05010KT 10SM OVC029 23/17 A3018 RMK AO2 T02330172
KILM 252153Z 10008KT 10SM OVC032 24/18 A3018 RMK AO2 SLP221 T02390183
KILM 252053Z 13007KT 10SM OVC036 26/18 A3018 RMK AO2 SLP218 T02560183 56012
KILM 251953Z 00000KT 10SM CLR 27/18 A3019 RMK AO2 SLP222 T02720178
KILM 251853Z VRB04KT 10SM R35/1800VP6000FT CLR 27/18 A3020 RMK AO2 SLP225 T02720178
KILM 251753Z 31007KT 10SM SCT023 27/18 A3021 RMK AO2 SLP230 T02670178 10267 20189 58006
KILM 251653Z 33009KT 10SM OVC021 24/17 A3022 RMK AO2 SLP233 T02440172
KILM 251629Z VRB04KT 10SM OVC019 24/17 A3022 RMK AO2 T02390172
KILM 251553Z 36006KT 10SM OVC017 23/17 A3023 RMK AO2 SLP236 T02280167
KILM 251453Z 02008KT 10SM OVC016 21/16 A3023 RMK AO2 SLP236 T02110161 50007
KILM 251410Z 02008KT 10SM OVC010 21/16 A3023 RMK AO2 T02060161
KILM 251353Z 01007KT 10SM OVC009 19/16 A3024 RMK AO2 SLP238 T01940161
KILM 251253Z 02009KT 10SM OVC007 19/17 A3023 RMK AO2 SLP235 T01940167
KILM 251153Z 02007KT 10SM OVC007 19/17 A3021 RMK AO2 SLP229 T01940172 10206 20189 51018
KILM 251113Z 02008KT 10SM OVC006 19/17 A3020 RMK AO2 T01890172
KILM 251053Z 36010KT 10SM OVC004 19/18 A3020 RMK AO2 SLP225 T01890178
KILM 250953Z 34005KT 10SM OVC006 20/18 A3017 RMK AO2 SLP216 T02000183
KILM 250853Z AUTO 36007KT 10SM OVC007 20/18 A3015 RMK AO2 SLP211 T02000183 53002
KILM 250753Z AUTO 01008KT 10SM OVC010 21/18 A3015 RMK AO2 SLP208 T02060178
KILM 250653Z AUTO 34006KT 10SM OVC012 21/18 A3014 RMK AO2 SLP206 T02060178
KILM 250641Z AUTO 35005KT 10SM BKN013 OVC027 21/18 A3014 RMK AO2 T02110178
KILM 250553Z AUTO 35007KT 10SM OVC028 21/18 A3015 RMK AO2 SLP208 T02110183 10272 20211 50003
KILM 250508Z AUTO 35005KT 10SM BKN028 22/18 A3015 RMK AO2 T02170183
KILM 250453Z AUTO 34005KT 10SM FEW028 22/18 A3015 RMK AO2 SLP209 T02170183 403110217
KILM 250406Z AUTO 36010KT 10SM BKN030 22/18 A3014 RMK AO2 T02220183
KILM 250353Z AUTO 35006KT 10SM OVC028 23/19 A3015 RMK AO2 SLP208 T02280189
KILM 250253Z AUTO 02008KT 10SM OVC024 24/20 A3014 RMK AO2 SLP205 LAST T02390200 53022
KILM 250153Z 02012KT 10SM OVC020 25/21 A3012 RMK AO2 LTG DSNT S AND SW SLP200 T02500206
KILM 250139Z 29006KT 10SM BKN018 OVC049 26/21 A3011 RMK AO2 T02610211
KILM 250053Z 21006KT 10SM CLR 26/21 A3009 RMK AO2 SLP187 T02560211
KILM 242353Z 20008KT 10SM FEW050 SCT065 SCT090 27/20 A3007 RMK AO2 SLP183 60000 T02720200 10306 20272 53013
KILM 242253Z 20010KT 10SM FEW055 29/19 A3005 RMK AO2 SLP176 T02890194
KILM 242153Z 21012KT 10SM CLR 29/19 A3004 RMK AO2 SLP171 T02940194
KILM 242053Z 21012G19KT 10SM FEW055 29/19 A3004 RMK AO2 RAB1958E12 SLP171 P0000 60000 T02890194 58009
KILM 241953Z 22010KT 10SM FEW100 SCT110 28/20 A3005 RMK AO2 RAE1858 SLP176 P0000 T02780200
KILM 241853Z 24008KT 10SM -RA BKN110 28/19 A3007 RMK AO2 RAB41 SLP181 P0000 T02780194
KILM 241753Z 22010KT 10SM CLR 31/19 A3006 RMK AO2 LTG DSNT W SLP180 T03060189 10311 20256 58010
KILM 241653Z 22015KT 10SM FEW036 31/19 A3008 RMK AO2 SLP184 T03060194
KILM 241553Z 22014G19KT 10SM CLR 31/20 A3008 RMK AO2 SLP187 T03060200
KILM 241453Z 22009KT 10SM FEW027 29/21 A3009 RMK AO2 SLP189 T02890211 50003
KILM 241414Z 22013G18KT 10SM FEW020 SCT027 BKN035 28/22 A3009 RMK AO2 T02830217
KILM 241353Z 23011KT 10SM SCT022 BKN029 BKN039 28/22 A3009 RMK AO2 SLP190 T02780222
KILM 241329Z 20007G16KT 10SM SCT020 SCT025 SCT034 28/22 A3009 RMK AO2 T02780222
KILM 241253Z 22006KT 10SM BKN016 BKN024 27/22 A3009 RMK AO2 SLP187 T02670222
KILM 241231Z 18008KT 10SM BKN015 27/23 A3009 RMK AO2 T02670228
KILM 241153Z 17005KT 10SM CLR 26/23 A3008 RMK AO2 SLP186 T02560228 10256 20239 53008
KILM 241053Z 18004KT 10SM CLR 24/22 A3008 RMK AO2 SLP184 T02440222
KILM 240953Z 16003KT 10SM FEW028 24/22 A3006 RMK AO2 SLP179 T02390222
KILM 240853Z AUTO 17004KT 10SM CLR 24/22 A3006 RMK AO2 SLP178 T02390222 50004
KILM 240753Z AUTO 20003KT 10SM SCT033 SCT120 24/22 A3007 RMK AO2 SLP182 T02390222